Map

Track Data

SID SEASON NUMBER BASIN SUBBASIN NAME ISO_TIME NATURE LAT LON WMO_WIND WMO_PRES WMO_AGENCY TRACK_TYPE DIST2LAND LANDFALL IFLAG USA_AGENCY USA_ATCF_ID USA_LAT USA_LON USA_RECORD USA_STATUS USA_WIND USA_PRES USA_SSHS USA_R34_NE USA_R34_SE USA_R34_SW USA_R34_NW USA_R50_NE USA_R50_SE USA_R50_SW USA_R50_NW USA_R64_NE USA_R64_SE USA_R64_SW USA_R64_NW USA_POCI USA_ROCI USA_RMW USA_EYE TOKYO_LAT TOKYO_LON TOKYO_GRADE TOKYO_WIND TOKYO_PRES TOKYO_R50_DIR TOKYO_R50_LONG TOKYO_R50_SHORT TOKYO_R30_DIR TOKYO_R30_LONG TOKYO_R30_SHORT TOKYO_LAND CMA_LAT CMA_LON CMA_CAT CMA_WIND CMA_PRES HKO_LAT HKO_LON HKO_CAT HKO_WIND HKO_PRES NEWDELHI_LAT NEWDELHI_LON NEWDELHI_GRADE NEWDELHI_WIND NEWDELHI_PRES NEWDELHI_CI NEWDELHI_DP NEWDELHI_POCI REUNION_LAT REUNION_LON REUNION_TYPE REUNION_WIND REUNION_PRES REUNION_TNUM REUNION_CI REUNION_RMW REUNION_R34_NE REUNION_R34_SE REUNION_R34_SW REUNION_R34_NW REUNION_R50_NE REUNION_R50_SE REUNION_R50_SW REUNION_R50_NW REUNION_R64_NE REUNION_R64_SE REUNION_R64_SW REUNION_R64_NW BOM_LAT BOM_LON BOM_TYPE BOM_WIND BOM_PRES BOM_TNUM BOM_CI BOM_RMW BOM_R34_NE BOM_R34_SE BOM_R34_SW BOM_R34_NW BOM_R50_NE BOM_R50_SE BOM_R50_SW BOM_R50_NW BOM_R64_NE BOM_R64_SE BOM_R64_SW BOM_R64_NW BOM_ROCI BOM_POCI BOM_EYE BOM_POS_METHOD BOM_PRES_METHOD NADI_LAT NADI_LON NADI_CAT NADI_WIND NADI_PRES WELLINGTON_LAT WELLINGTON_LON WELLINGTON_WIND WELLINGTON_PRES DS824_LAT DS824_LON DS824_STAGE DS824_WIND DS824_PRES TD9636_LAT TD9636_LON TD9636_STAGE TD9636_WIND TD9636_PRES TD9635_LAT TD9635_LON TD9635_WIND TD9635_PRES TD9635_ROCI NEUMANN_LAT NEUMANN_LON NEUMANN_CLASS NEUMANN_WIND NEUMANN_PRES MLC_LAT MLC_LON MLC_CLASS MLC_WIND MLC_PRES USA_GUST BOM_GUST BOM_GUST_PER REUNION_GUST REUNION_GUST_PER USA_SEAHGT USA_SEARAD_NE USA_SEARAD_SE USA_SEARAD_SW USA_SEARAD_NW STORM_SPEED STORM_DIR
1889166N18275 1889 4 NA CS NOT_NAMED 1889-06-15 00:00:00 TS 18.3000 -84.8000 spur-other 268 253 _____________O -1 18.3000 -84.8000 TS 35 12 333
1889166N18275 1889 4 NA CS NOT_NAMED 1889-06-15 03:00:00 TS 18.8425 -85.0849 spur-other 253 209 _____________P -1 18.8425 -85.0849 TS 37 12 333
1889166N18275 1889 4 NA CS NOT_NAMED 1889-06-15 06:00:00 TS 19.4000 -85.4000 spur-other 209 160 _____________O -1 19.4000 -85.4000 TS 40 13 331
1889166N18275 1889 4 NA CS NOT_NAMED 1889-06-15 09:00:00 TS 19.9726 -85.7447 spur-other 153 98 _____________P -1 19.9726 -85.7447 TS 42 12 333
1889166N18275 1889 4 NA CS NOT_NAMED 1889-06-15 12:00:00 TS 20.5000 -86.0000 spur-other 98 76 _____________O -1 20.5000 -86.0000 TS 45 10 344
1889166N18275 1889 4 NA CS NOT_NAMED 1889-06-15 15:00:00 TS 20.9299 -86.0454 spur-other 76 72 _____________P -1 20.9299 -86.0454 TS 50 8 1
1889166N18275 1889 4 NA CS NOT_NAMED 1889-06-15 18:00:00 TS 21.3000 -86.0000 spur-other 75 75 _____________O -1 21.3000 -86.0000 TS 55 7 3
1889166N18275 1889 4 NA CS NOT_NAMED 1889-06-15 21:00:00 TS 21.6500 -86.0149 spur-other 89 89 _____________P -1 21.6500 -86.0149 TS 57 7 0
1889166N18275 1889 4 NA GM NOT_NAMED 1889-06-16 00:00:00 TS 22.0000 -86.0000 spur-other 103 102 _____________O -1 22.0000 -86.0000 TS 60 8 6
1889166N18275 1889 4 NA GM NOT_NAMED 1889-06-16 03:00:00 TS 22.4000 -85.9225 spur-other 108 108 _____________P -1 22.4000 -85.9225 TS 62 8 13
1889166N18275 1889 4 NA GM NOT_NAMED 1889-06-16 06:00:00 TS 22.8000 -85.8000 spur-other 129 129 _____________O -1 22.8000 -85.8000 HU 65 8 16
1889166N18275 1889 4 NA GM NOT_NAMED 1889-06-16 09:00:00 TS 23.1273 -85.6944 spur-other 152 152 _____________P -1 23.1273 -85.6944 HU 65 8 22
1889166N18275 1889 4 NA GM NOT_NAMED 1889-06-16 12:00:00 TS 23.5000 -85.5000 spur-other 173 173 _____________O -1 23.5000 -85.5000 HU 65 10 29
1889166N18275 1889 4 NA GM NOT_NAMED 1889-06-16 15:00:00 TS 24.0276 -85.1452 spur-other 183 183 _____________P -1 24.0276 -85.1452 HU 65 13 34
1889166N18275 1889 4 NA GM NOT_NAMED 1889-06-16 18:00:00 TS 24.6000 -84.7000 spur-other 223 223 _____________O -1 24.6000 -84.7000 HU 65 13 37
1889166N18275 1889 4 NA GM NOT_NAMED 1889-06-16 21:00:00 TS 25.0999 -84.2571 spur-other 262 200 _____________P -1 25.0999 -84.2571 HU 65 13 39
1889166N18275 1889 4 NA GM NOT_NAMED 1889-06-17 00:00:00 TS 25.6000 -83.8000 spur-other 200 134 _____________O -1 25.6000 -83.8000 HU 65 13 38
1889166N18275 1889 4 NA GM NOT_NAMED 1889-06-17 03:00:00 TS 26.1499 -83.3424 spur-other 126 60 _____________P -1 26.1499 -83.3424 HU 60 14 36
1889166N18275 1889 4 NA GM NOT_NAMED 1889-06-17 06:00:00 TS 26.7000 -82.9000 spur-other 60 9 _____________O -1 26.7000 -82.9000 TS 55 13 35
1889166N18275 1889 4 NA GM NOT_NAMED 1889-06-17 09:00:00 TS 27.1919 -82.5287 spur-other 0 0 _____________P -1 27.1919 -82.5287 TS 50 12 35
1889166N18275 1889 4 NA NA NOT_NAMED 1889-06-17 12:00:00 TS 27.7000 -82.1000 spur-other 0 0 _____________O -1 27.7000 -82.1000 TS 45 14 40
1889166N18275 1889 4 NA NA NOT_NAMED 1889-06-17 15:00:00 TS 28.2852 -81.4876 spur-other 0 0 _____________P -1 28.2852 -81.4876 TS 40 17 44
1889166N18275 1889 4 NA NA NOT_NAMED 1889-06-17 18:00:00 TS 28.9000 -80.8000 spur-other 0 0 _____________O -1 28.9000 -80.8000 TS 35 17 44
1889166N18275 1889 4 NA NA NOT_NAMED 1889-06-17 21:00:00 TS 29.4998 -80.1419 spur-other 89 89 _____________P -1 29.4998 -80.1419 TS 35 17 43
1889166N18275 1889 4 NA NA NOT_NAMED 1889-06-18 00:00:00 TS 30.1000 -79.5000 spur-other 172 172 _____________O -1 30.1000 -79.5000 TS 35 16 42
1889166N18275 1889 4 NA NA NOT_NAMED 1889-06-18 03:00:00 TS 30.6995 -78.8990 spur-other 232 215 _____________P -1 30.6995 -78.8990 TS 35 16 41
1889166N18275 1889 4 NA NA NOT_NAMED 1889-06-18 06:00:00 TS 31.3000 -78.3000 spur-other 215 194 _____________O -1 31.3000 -78.3000 TS 35 16 40
1889166N18275 1889 4 NA NA NOT_NAMED 1889-06-18 09:00:00 TS 31.9370 -77.6724 spur-other 201 181 _____________P -1 31.9370 -77.6724 TS 35 16 43
1889166N18275 1889 4 NA NA NOT_NAMED 1889-06-18 12:00:00 TS 32.5000 -77.0000 spur-other 181 177 _____________O -1 32.5000 -77.0000 TS 35 15 51
1889166N18275 1889 4 NA NA NOT_NAMED 1889-06-18 15:00:00 TS 32.8948 -76.2639 spur-other 192 186 _____________P -1 32.8948 -76.2639 TS 35 14 61
1889166N18275 1889 4 NA NA NOT_NAMED 1889-06-18 18:00:00 TS 33.2000 -75.5000 spur-other 190 186 _____________O -1 33.2000 -75.5000 TS 35 14 64
1889166N18275 1889 4 NA NA NOT_NAMED 1889-06-18 21:00:00 TS 33.5070 -74.7493 spur-other 212 212 _____________P -1 33.5070 -74.7493 TS 35 14 64
1889166N18275 1889 4 NA NA NOT_NAMED 1889-06-19 00:00:00 TS 33.8000 -74.0000 spur-other 243 243 _____________O -1 33.8000 -74.0000 TS 35 14 65
1889166N18275 1889 4 NA NA NOT_NAMED 1889-06-19 03:00:00 TS 34.0995 -73.2495 spur-other 282 281 _____________P -1 34.0995 -73.2495 TS 37 14 64
1889166N18275 1889 4 NA NA NOT_NAMED 1889-06-19 06:00:00 TS 34.4000 -72.5000 spur-other 313 313 _____________O -1 34.4000 -72.5000 TS 40 13 67
1889166N18275 1889 4 NA NA NOT_NAMED 1889-06-19 09:00:00 TS 34.6088 -71.7834 spur-other 361 361 _____________P -1 34.6088 -71.7834 TS 42 14 64
1889166N18275 1889 4 NA NA NOT_NAMED 1889-06-19 12:00:00 TS 35.0000 -71.0000 spur-other 416 416 _____________O -1 35.0000 -71.0000 TS 45 19 50
1889166N18275 1889 4 NA NA NOT_NAMED 1889-06-19 15:00:00 TS 35.8176 -70.0394 spur-other 494 494 _____________P -1 35.8176 -70.0394 TS 45 24 42
1889166N18275 1889 4 NA NA NOT_NAMED 1889-06-19 18:00:00 TS 36.8000 -69.0000 spur-other 543 484 _____________O -1 36.8000 -69.0000 TS 45 25 42
1889166N18275 1889 4 NA NA NOT_NAMED 1889-06-19 21:00:00 TS 37.6491 -67.9971 spur-other 487 432 _____________P -1 37.6491 -67.9971 TS 45 23 43
1889166N18275 1889 4 NA NA NOT_NAMED 1889-06-20 00:00:00 ET 38.5000 -67.0000 spur-other 437 423 _____________O -1 38.5000 -67.0000 EX 45 23 42
1889166N18275 1889 4 NA NA NOT_NAMED 1889-06-20 03:00:00 ET 39.3892 -66.0057 spur-other 423 367 _____________P -1 39.3892 -66.0057 EX 45 24 41
1889166N18275 1889 4 NA NA NOT_NAMED 1889-06-20 06:00:00 ET 40.3000 -65.0000 spur-other 356 _____________O -1 40.3000 -65.0000 EX 45 24 40

About IBTrACS Database

This database is a web-friendly format of International Best Track Archive for Climate Stewardship (IBTrACS), a global best track data archive curated by NOAA dating back to 1842.

Updated: 2021-10-08